createdAt,value
2022-11-17T00:01:41.807Z,7.05
2022-11-17T00:04:30.053Z,7.60
2022-11-17T00:07:15.720Z,7.90
2022-11-17T00:10:01.142Z,8.23
2022-11-17T00:13:05.349Z,10.07
2022-11-17T00:15:51.108Z,7.78
2022-11-17T00:18:55.085Z,11.07
2022-11-17T00:21:41.020Z,11.43
2022-11-17T00:24:26.716Z,10.45
2022-11-17T00:27:12.498Z,13.70
2022-11-17T00:29:58.271Z,15.10
2022-11-17T00:33:22.469Z,15.05
2022-11-17T00:36:07.920Z,16.77
2022-11-17T00:38:53.497Z,9.40
2022-11-17T00:41:39.074Z,12.60
2022-11-17T00:44:25.801Z,13.25
2022-11-17T00:47:11.650Z,11.60
2022-11-17T00:49:57.254Z,12.63
2022-11-17T00:52:42.601Z,13.43
2022-11-17T00:55:28.064Z,13.32
2022-11-17T00:58:13.476Z,13.88
2022-11-17T01:00:58.958Z,14.55
2022-11-17T01:03:44.550Z,12.80
2022-11-17T01:06:38.438Z,12.73
2022-11-17T01:09:24.614Z,11.43
2022-11-17T01:12:10.365Z,13.75
2022-11-17T01:14:55.725Z,15.63
2022-11-17T01:17:41.364Z,16.50
2022-11-17T01:20:27.025Z,17.35
2022-11-17T01:23:12.686Z,16.08
2022-11-17T01:26:07.453Z,17.45
2022-11-17T01:28:53.860Z,17.70
2022-11-17T01:31:43.501Z,18.23
2022-11-17T01:34:29.127Z,15.75
2022-11-17T01:37:20.619Z,19.80
2022-11-17T01:40:07.071Z,13.60
2022-11-17T01:42:52.876Z,18.05
2022-11-17T01:45:38.601Z,19.50
2022-11-17T01:48:24.364Z,15.07
2022-11-17T01:51:13.226Z,12.13
2022-11-17T01:53:59.562Z,16.38
2022-11-17T01:56:48.894Z,16.73
2022-11-17T01:59:42.240Z,12.00
2022-11-17T02:02:28.684Z,11.70
2022-11-17T02:05:32.939Z,9.30
2022-11-17T02:08:20.961Z,10.25
2022-11-17T02:13:55.852Z,10.50
2022-11-17T02:16:41.156Z,12.55
2022-11-17T02:19:29.991Z,12.93
2022-11-17T02:22:49.121Z,11.70
2022-11-17T02:25:45.587Z,11.38
2022-11-17T02:29:11.839Z,11.75
2022-11-17T02:32:07.226Z,13.05
2022-11-17T02:35:11.588Z,11.90
2022-11-17T02:38:27.067Z,11.00
2022-11-17T02:41:17.587Z,10.45
2022-11-17T02:44:08.484Z,12.88
2022-11-17T02:46:59.818Z,11.60
2022-11-17T02:49:50.533Z,13.18
2022-11-17T02:52:35.804Z,11.73
2022-11-17T02:55:21.032Z,10.95
2022-11-17T02:58:15.694Z,11.80
2022-11-17T03:01:33.802Z,10.38
2022-11-17T03:04:56.980Z,10.18
2022-11-17T03:08:09.117Z,11.38
2022-11-17T03:11:01.134Z,9.02
2022-11-17T03:13:52.298Z,10.32
2022-11-17T03:17:01.158Z,11.23
2022-11-17T03:19:55.071Z,13.18
2022-11-17T03:22:48.960Z,12.90
2022-11-17T03:25:38.005Z,12.65
2022-11-17T03:28:29.474Z,11.38
2022-11-17T03:31:17.477Z,12.70
2022-11-17T03:34:07.165Z,12.70
2022-11-17T03:36:55.712Z,10.13
2022-11-17T03:39:43.717Z,11.65
2022-11-17T03:42:33.805Z,8.57
2022-11-17T03:45:29.107Z,10.30
2022-11-17T03:48:22.619Z,9.52
2022-11-17T03:51:09.303Z,9.65
2022-11-17T03:53:55.677Z,12.60
2022-11-17T03:57:01.156Z,11.57
2022-11-17T04:00:03.994Z,11.10
2022-11-17T04:03:00.797Z,9.18
2022-11-17T04:05:46.458Z,9.40
2022-11-17T04:08:31.967Z,12.50
2022-11-17T04:11:36.155Z,8.88
2022-11-17T04:14:39.836Z,11.75
2022-11-17T04:17:25.379Z,12.55
2022-11-17T04:20:11.415Z,8.88
2022-11-17T04:23:08.626Z,9.63
2022-11-17T04:26:14.841Z,9.77
2022-11-17T04:29:00.276Z,8.55
2022-11-17T04:31:45.800Z,11.82
2022-11-17T04:34:31.244Z,9.15
2022-11-17T04:37:19.664Z,9.95
2022-11-17T04:40:06.005Z,9.15
2022-11-17T04:42:51.870Z,8.80
2022-11-17T04:45:37.168Z,9.73
2022-11-17T04:48:22.610Z,8.23
2022-11-17T04:51:07.969Z,10.30
2022-11-17T04:53:53.760Z,10.18
2022-11-17T04:56:39.275Z,8.95
2022-11-17T04:59:24.736Z,8.27
2022-11-17T05:02:10.247Z,10.40
2022-11-17T05:04:56.051Z,9.43
2022-11-17T05:07:41.228Z,8.63
2022-11-17T05:10:45.413Z,8.30
2022-11-17T05:13:31.274Z,7.88
2022-11-17T05:16:36.407Z,9.88
2022-11-17T05:19:24.256Z,8.50
2022-11-17T05:22:29.296Z,8.38
2022-11-17T05:25:15.333Z,8.68
2022-11-17T05:28:00.790Z,8.15
2022-11-17T05:30:46.065Z,7.65
2022-11-17T05:33:37.472Z,7.03
2022-11-17T05:36:24.770Z,7.65
2022-11-17T05:39:10.537Z,8.32
2022-11-17T05:41:56.221Z,6.47
2022-11-17T05:44:41.851Z,7.55
2022-11-17T05:47:27.310Z,7.22
2022-11-17T05:50:13.069Z,7.63
2022-11-17T05:52:59.670Z,6.90
2022-11-17T05:55:45.476Z,7.30
2022-11-17T05:58:33.603Z,5.85
2022-11-17T06:01:21.146Z,6.28
2022-11-17T06:04:08.600Z,6.13
2022-11-17T06:06:59.076Z,4.07
2022-11-17T06:09:46.108Z,4.82
2022-11-17T06:12:31.754Z,5.20
2022-11-17T06:15:17.235Z,6.90
2022-11-17T06:18:14.410Z,6.85
2022-11-17T06:21:00.254Z,6.63
2022-11-17T06:23:47.770Z,8.10
2022-11-17T06:26:34.229Z,5.95
2022-11-17T06:29:20.050Z,6.45
2022-11-17T06:32:05.565Z,5.97
2022-11-17T06:34:55.594Z,6.72
2022-11-17T06:37:42.975Z,6.40
2022-11-17T06:40:28.859Z,7.07
2022-11-17T06:43:14.569Z,6.60
2022-11-17T06:46:05.080Z,5.20
2022-11-17T06:48:50.541Z,5.63
2022-11-17T06:51:38.918Z,7.13
2022-11-17T06:54:27.670Z,7.25
2022-11-17T06:57:13.642Z,7.07
2022-11-17T06:59:59.084Z,7.18
2022-11-17T07:02:44.931Z,10.30
2022-11-17T07:05:32.077Z,9.98
2022-11-17T07:08:19.163Z,12.63
2022-11-17T07:11:08.526Z,14.02
2022-11-17T07:13:53.919Z,8.90
2022-11-17T07:16:41.921Z,10.25
2022-11-17T07:19:27.321Z,9.80
2022-11-17T07:22:12.960Z,8.73
2022-11-17T07:24:58.312Z,8.95
2022-11-17T07:27:43.565Z,13.07
2022-11-17T07:30:29.412Z,12.63
2022-11-17T07:33:15.069Z,12.43
2022-11-17T07:36:11.629Z,15.10
2022-11-17T07:38:56.750Z,13.60
2022-11-17T07:41:42.284Z,12.82
2022-11-17T07:44:27.960Z,12.07
2022-11-17T07:47:13.453Z,14.90
2022-11-17T07:49:58.784Z,11.52
2022-11-17T07:52:44.161Z,12.35
2022-11-17T07:55:29.602Z,13.07
2022-11-17T07:58:15.095Z,14.85
2022-11-17T08:01:05.816Z,14.30
2022-11-17T08:03:51.613Z,20.67
2022-11-17T08:06:37.349Z,23.98
2022-11-17T08:09:22.956Z,24.30
2022-11-17T08:12:09.000Z,18.60
2022-11-17T08:14:54.786Z,16.35
2022-11-17T08:17:40.255Z,14.10
2022-11-17T08:20:26.877Z,15.63
2022-11-17T08:23:12.622Z,18.05
2022-11-17T08:25:58.576Z,15.70
2022-11-17T08:28:43.742Z,14.73
2022-11-17T08:31:29.094Z,13.85
2022-11-17T08:34:14.811Z,12.43
2022-11-17T08:37:00.830Z,10.18
2022-11-17T08:39:46.473Z,11.43
2022-11-17T08:42:31.844Z,9.85
2022-11-17T08:45:17.728Z,10.10
2022-11-17T08:48:04.228Z,9.48
2022-11-17T08:50:49.853Z,10.43
2022-11-17T08:53:35.808Z,9.40
2022-11-17T08:56:21.917Z,10.00
2022-11-17T08:59:09.452Z,10.13
2022-11-17T09:04:40.542Z,8.90
2022-11-17T09:07:29.395Z,8.90
2022-11-17T09:10:17.683Z,9.38
2022-11-17T09:13:03.664Z,13.73
2022-11-17T09:15:49.147Z,14.93
2022-11-17T09:18:37.081Z,11.93
2022-11-17T09:21:22.902Z,8.30
2022-11-17T09:24:08.848Z,8.35
2022-11-17T09:26:57.410Z,12.35
2022-11-17T09:29:43.074Z,11.82
2022-11-17T09:32:28.535Z,7.72
2022-11-17T09:35:14.282Z,7.32
2022-11-17T09:38:03.696Z,9.00
2022-11-17T09:40:49.043Z,10.73
2022-11-17T09:43:39.104Z,9.32
2022-11-17T09:46:50.321Z,9.20
2022-11-17T09:49:58.651Z,27.65
2022-11-17T09:53:12.706Z,14.23
2022-11-17T09:56:02.799Z,10.82
2022-11-17T09:58:56.941Z,13.48
2022-11-17T10:01:42.713Z,10.02
2022-11-17T10:04:30.145Z,10.75
2022-11-17T10:07:16.607Z,9.30
2022-11-17T10:10:05.944Z,10.20
2022-11-17T10:12:57.441Z,10.30
2022-11-17T10:15:48.981Z,7.60
2022-11-17T10:18:39.156Z,9.50
2022-11-17T10:21:28.546Z,9.52
2022-11-17T10:24:43.375Z,10.60
2022-11-17T10:27:31.428Z,9.20
2022-11-17T10:30:19.716Z,8.25
2022-11-17T10:33:04.975Z,9.73
2022-11-17T10:35:56.465Z,7.85
2022-11-17T10:38:47.875Z,9.68
2022-11-17T10:41:42.936Z,9.05
2022-11-17T10:44:32.021Z,8.60
2022-11-17T10:47:26.595Z,9.68
2022-11-17T10:50:27.549Z,9.45
2022-11-17T10:53:42.967Z,9.82
2022-11-17T10:56:33.937Z,9.05
2022-11-17T10:59:25.820Z,10.98
2022-11-17T11:02:20.711Z,9.00
2022-11-17T11:05:15.597Z,9.35
2022-11-17T11:08:19.527Z,8.10
2022-11-17T11:11:15.979Z,11.80
2022-11-17T11:14:11.912Z,14.02
2022-11-17T11:16:57.625Z,10.95
2022-11-17T11:19:52.887Z,9.18
2022-11-17T11:22:44.492Z,16.73
2022-11-17T11:25:50.596Z,9.52
2022-11-17T11:29:04.282Z,10.15
2022-11-17T11:32:28.605Z,10.68
2022-11-17T11:35:32.654Z,11.55
2022-11-17T11:38:39.421Z,9.98
2022-11-17T11:41:35.625Z,9.02
2022-11-17T11:44:39.108Z,11.20
2022-11-17T11:47:51.536Z,9.15
2022-11-17T11:50:58.589Z,10.15
2022-11-17T11:54:12.427Z,10.40
2022-11-17T11:56:58.477Z,10.05
2022-11-17T11:59:59.487Z,8.35
2022-11-17T12:03:16.116Z,9.20
2022-11-17T12:06:35.706Z,8.45
2022-11-17T12:09:35.472Z,9.68
2022-11-17T12:12:32.217Z,9.15
2022-11-17T12:15:20.628Z,9.95
2022-11-17T12:18:11.082Z,8.85
2022-11-17T12:21:04.617Z,10.52
2022-11-17T12:23:50.093Z,13.50
2022-11-17T12:26:36.988Z,10.95
2022-11-17T12:29:22.271Z,9.85
2022-11-17T12:32:08.375Z,10.63
2022-11-17T12:35:24.440Z,14.82
2022-11-17T12:38:15.526Z,9.45
2022-11-17T12:41:00.882Z,10.05
2022-11-17T12:43:46.436Z,10.85
2022-11-17T12:46:33.475Z,10.05
2022-11-17T12:49:35.817Z,10.77
2022-11-17T12:52:49.622Z,11.73
2022-11-17T12:55:35.403Z,9.98
2022-11-17T12:58:42.686Z,10.80
2022-11-17T13:01:44.091Z,9.20
2022-11-17T13:04:49.582Z,9.18
2022-11-17T13:07:35.657Z,10.00
2022-11-17T13:10:33.008Z,8.77
2022-11-17T13:13:24.511Z,10.07
2022-11-17T13:16:19.486Z,11.35
2022-11-17T13:19:24.747Z,8.38
2022-11-17T13:22:15.729Z,9.55
2022-11-17T13:25:13.318Z,8.70
2022-11-17T13:28:04.414Z,8.50
2022-11-17T13:30:50.595Z,12.38
2022-11-17T13:33:40.317Z,13.48
2022-11-17T13:36:27.358Z,10.85
2022-11-17T13:39:20.579Z,11.57
2022-11-17T13:42:08.571Z,11.63
2022-11-17T13:44:56.233Z,10.77
2022-11-17T13:47:45.576Z,8.30
2022-11-17T13:50:31.070Z,11.93
2022-11-17T13:53:26.150Z,11.52
2022-11-17T13:56:30.602Z,10.52
2022-11-17T13:59:22.298Z,10.88
2022-11-17T14:02:16.864Z,10.93
2022-11-17T14:05:06.125Z,10.30
2022-11-17T14:07:53.665Z,10.90
2022-11-17T14:10:40.079Z,12.13
2022-11-17T14:13:30.582Z,12.20
2022-11-17T14:16:30.573Z,13.80
2022-11-17T14:19:16.430Z,13.80
2022-11-17T14:22:08.905Z,20.95
2022-11-17T14:24:54.448Z,24.08
2022-11-17T14:27:40.418Z,25.98
2022-11-17T14:30:26.418Z,28.77
2022-11-17T14:33:13.734Z,17.75
2022-11-17T14:36:00.234Z,14.93
2022-11-17T14:38:46.689Z,13.85
2022-11-17T14:41:32.122Z,12.07
2022-11-17T14:44:17.469Z,12.48
2022-11-17T14:47:03.402Z,10.85
2022-11-17T14:49:48.901Z,10.65
2022-11-17T14:52:34.351Z,10.93
2022-11-17T14:55:21.940Z,15.00
2022-11-17T15:00:52.848Z,9.68
2022-11-17T15:03:38.240Z,10.50
2022-11-17T15:06:24.452Z,11.98
2022-11-17T15:09:15.857Z,12.02
2022-11-17T15:12:01.499Z,13.93
2022-11-17T15:14:48.109Z,14.23
2022-11-17T15:17:33.878Z,13.23
2022-11-17T15:20:19.510Z,15.10
2022-11-17T15:23:05.142Z,16.00
2022-11-17T15:25:50.547Z,31.90
2022-11-17T15:28:36.067Z,38.28
2022-11-17T15:31:21.596Z,36.78
2022-11-17T15:34:07.229Z,22.60
2022-11-17T15:36:52.614Z,18.77
2022-11-17T15:39:38.141Z,27.10
2022-11-17T15:42:23.614Z,16.38
2022-11-17T15:45:09.350Z,25.10
2022-11-17T15:47:55.037Z,23.23
2022-11-17T15:50:40.447Z,24.73
2022-11-17T15:53:30.979Z,32.60
2022-11-17T15:56:21.062Z,31.42
2022-11-17T15:59:06.821Z,28.15
2022-11-17T16:01:52.011Z,25.70
2022-11-17T16:04:37.396Z,21.77
2022-11-17T16:07:22.996Z,22.45
2022-11-17T16:10:08.667Z,21.92
2022-11-17T16:12:54.588Z,20.48
2022-11-17T16:15:40.234Z,18.65
2022-11-17T16:18:26.060Z,22.75
2022-11-17T16:21:13.687Z,14.43
2022-11-17T16:24:00.945Z,13.43
2022-11-17T16:26:47.650Z,15.63
2022-11-17T16:29:33.429Z,18.57
2022-11-17T16:32:18.805Z,15.50
2022-11-17T16:35:04.512Z,15.55
2022-11-17T16:37:53.908Z,12.15
2022-11-17T16:40:39.865Z,13.95
2022-11-17T16:43:25.571Z,13.20
2022-11-17T16:46:31.139Z,16.02
2022-11-17T16:49:19.024Z,15.48
2022-11-17T16:52:04.599Z,41.05
2022-11-17T16:54:50.171Z,20.00
2022-11-17T16:57:36.014Z,16.35
2022-11-17T17:00:22.093Z,21.88
2022-11-17T17:03:07.949Z,24.77
2022-11-17T17:05:53.505Z,19.73
2022-11-17T17:08:39.534Z,20.85
2022-11-17T17:11:27.302Z,15.85
2022-11-17T17:16:59.518Z,17.42
2022-11-17T17:19:44.998Z,12.23
2022-11-17T17:22:30.638Z,13.98
2022-11-17T17:25:16.260Z,14.40
2022-11-17T17:28:01.558Z,10.02
2022-11-17T17:30:53.949Z,12.00
2022-11-17T17:33:40.105Z,11.23
2022-11-17T17:36:26.248Z,11.18
2022-11-17T17:39:15.673Z,14.45
2022-11-17T17:42:01.549Z,23.30
2022-11-17T17:44:47.161Z,20.77
2022-11-17T17:47:32.743Z,12.73
2022-11-17T17:50:18.197Z,12.27
2022-11-17T17:53:03.749Z,21.98
2022-11-17T17:55:49.000Z,12.90
2022-11-17T17:58:41.166Z,43.08
2022-11-17T18:01:28.914Z,72.45
2022-11-17T18:04:16.182Z,110.68
2022-11-17T18:09:47.638Z,80.00
2022-11-17T18:12:33.205Z,32.60
2022-11-17T18:15:18.706Z,28.33
2022-11-17T18:18:04.153Z,43.10
2022-11-17T18:20:59.816Z,32.65
2022-11-17T18:23:44.915Z,32.92
2022-11-17T18:26:32.948Z,25.83
2022-11-17T18:29:21.503Z,30.42
2022-11-17T18:32:07.090Z,32.45
2022-11-17T18:34:52.493Z,26.17
2022-11-17T18:37:38.042Z,22.63
2022-11-17T18:40:23.393Z,23.05
2022-11-17T18:43:09.214Z,12.07
2022-11-17T18:45:54.956Z,14.73
2022-11-17T18:48:42.308Z,15.43
2022-11-17T18:51:29.578Z,16.98
2022-11-17T18:54:15.270Z,15.38
2022-11-17T18:57:01.955Z,32.25
2022-11-17T18:59:49.075Z,25.60
2022-11-17T19:02:35.400Z,33.30
2022-11-17T19:05:20.633Z,31.90
2022-11-17T19:08:06.055Z,23.58
2022-11-17T19:10:53.693Z,22.55
2022-11-17T19:13:40.727Z,38.78
2022-11-17T19:16:26.808Z,53.30
2022-11-17T19:19:14.106Z,51.15
2022-11-17T19:22:00.861Z,57.90
2022-11-17T19:24:46.632Z,46.85
2022-11-17T19:27:32.100Z,48.85
2022-11-17T19:30:17.800Z,51.80
2022-11-17T19:33:03.500Z,70.80
2022-11-17T19:35:49.287Z,48.25
2022-11-17T19:38:38.582Z,44.45
2022-11-17T19:41:36.018Z,38.85
2022-11-17T19:44:21.540Z,39.03
2022-11-17T19:47:07.022Z,33.63
2022-11-17T19:49:52.345Z,34.92
2022-11-17T19:52:37.789Z,38.55
2022-11-17T19:55:23.079Z,34.28
2022-11-17T19:58:08.751Z,29.80
2022-11-17T20:00:54.405Z,24.27
2022-11-17T20:03:41.332Z,46.53
2022-11-17T20:06:32.005Z,31.33
2022-11-17T20:09:18.109Z,29.42
2022-11-17T20:12:04.342Z,46.60
2022-11-17T20:14:50.432Z,61.08
2022-11-17T20:17:36.014Z,48.88
2022-11-17T20:20:21.398Z,39.08
2022-11-17T20:23:08.932Z,38.40
2022-11-17T20:25:54.526Z,38.78
2022-11-17T20:28:41.135Z,36.30
2022-11-17T20:31:31.982Z,32.42
2022-11-17T20:34:18.309Z,32.85
2022-11-17T20:37:04.391Z,32.55
2022-11-17T20:39:50.174Z,26.05
2022-11-17T20:42:35.946Z,32.13
2022-11-17T20:45:21.997Z,28.73
2022-11-17T20:48:07.552Z,33.55
2022-11-17T20:51:07.747Z,30.73
2022-11-17T20:53:53.485Z,32.70
2022-11-17T20:56:40.342Z,26.20
2022-11-17T20:59:26.119Z,30.52
2022-11-17T21:02:12.141Z,32.95
2022-11-17T21:04:57.593Z,27.95
2022-11-17T21:07:43.024Z,33.97
2022-11-17T21:10:28.583Z,31.38
2022-11-17T21:13:14.062Z,34.20
2022-11-17T21:16:05.372Z,37.00
2022-11-17T21:18:50.957Z,33.97
2022-11-17T21:21:36.490Z,29.95
2022-11-17T21:24:22.651Z,26.02
2022-11-17T21:27:08.928Z,23.50
2022-11-17T21:29:54.315Z,26.45
2022-11-17T21:32:40.005Z,26.30
2022-11-17T21:35:25.458Z,25.42
2022-11-17T21:38:11.184Z,27.55
2022-11-17T21:41:03.903Z,39.88
2022-11-17T21:43:51.457Z,34.20
2022-11-17T21:46:37.081Z,44.85
2022-11-17T21:49:22.546Z,50.50
2022-11-17T21:52:07.922Z,42.38
2022-11-17T21:54:53.440Z,30.73
2022-11-17T21:57:39.036Z,32.90
2022-11-17T22:00:25.074Z,37.92
2022-11-17T22:03:11.563Z,34.88
2022-11-17T22:06:06.120Z,34.45
2022-11-17T22:08:53.085Z,36.58
2022-11-17T22:11:39.016Z,38.60
2022-11-17T22:14:24.478Z,38.92
2022-11-17T22:17:10.645Z,31.63
2022-11-17T22:19:55.780Z,24.13
2022-11-17T22:22:41.305Z,30.58
2022-11-17T22:28:32.800Z,36.22
2022-11-17T22:31:18.665Z,38.47
2022-11-17T22:34:04.626Z,42.47
2022-11-17T22:36:49.758Z,23.33
2022-11-17T22:39:35.144Z,23.05
2022-11-17T22:42:20.615Z,23.10
2022-11-17T22:45:06.433Z,18.13
2022-11-17T22:47:52.089Z,16.63
2022-11-17T22:50:37.759Z,21.08
2022-11-17T22:53:23.711Z,15.23
2022-11-17T22:56:09.789Z,13.13
2022-11-17T22:58:59.637Z,11.70
2022-11-17T23:01:45.605Z,11.50
2022-11-17T23:04:31.127Z,10.57
2022-11-17T23:07:16.827Z,8.40
2022-11-17T23:10:02.370Z,14.23
2022-11-17T23:12:47.776Z,14.23
2022-11-17T23:15:33.364Z,17.40
2022-11-17T23:18:19.011Z,14.63
2022-11-17T23:21:06.636Z,15.38
2022-11-17T23:26:37.712Z,12.27
2022-11-17T23:29:23.126Z,13.95
2022-11-17T23:32:08.850Z,15.30
2022-11-17T23:34:53.946Z,14.75
2022-11-17T23:37:39.407Z,17.33
2022-11-17T23:40:24.974Z,15.60
2022-11-17T23:43:10.613Z,18.27
2022-11-17T23:45:56.928Z,16.33
2022-11-17T23:48:43.067Z,14.73
2022-11-17T23:51:29.959Z,13.13
2022-11-17T23:54:15.853Z,14.32
2022-11-17T23:57:01.345Z,13.93
2022-11-17T23:59:46.791Z,13.85
